Latest Weather Observations for Whyalla

IDS60801

Issued at 2:05 pm CST Wednesday 20 August 2014 (issued every 30 minutes, with the page automatically refreshed every 10 minutes)

About weather observations | Map of weather stations | Latest weather observations for SA | Other Formats
Station Details ID: 018120 Name: WHYALLA AERO Lat: -33.05 Lon: 137.52 Height: 6.5 m
Data from the previous 72 hours. | See also: Recent months at Whyalla
Date/Time
CST
Temp
°C
App
Temp
°C
Dew
Point
Rel
Hum
%
Delta-T
°C
Wind Press
QNH
hPa
Press
MSL
hPa
Rain
since 9 am
mm
Dir
 
Spd
km/h
Gust
km/h
Spd
kts
Gust
kts
20/02:00pm 15.2 11.3 7.0 58 4.0 SSE 17 22 9 12 1024.0 1024.0 0.0
20/01:30pm 14.5 10.9 6.6 59 3.8 SSE 15 20 8 11 1024.3 1024.3 0.0
20/01:00pm 14.7 11.4 6.3 57 4.0 SE 13 20 7 11 1024.8 1024.8 0.0
20/12:30pm 14.4 10.7 6.5 59 3.8 SE 15 20 8 11 1025.2 1025.2 0.0
20/12:00pm 13.8 10.5 6.2 60 3.6 SE 13 20 7 11 1025.8 1025.8 0.0
20/11:30am 13.7 10.8 6.3 61 3.5 ESE 11 17 6 9 1026.2 1026.2 0.0
20/11:00am 13.3 10.3 6.2 62 3.4 SSE 11 17 6 9 1026.4 1026.4 0.0
20/10:30am 12.9 10.0 6.3 64 3.1 SE 11 15 6 8 1026.5 1026.5 0.0
20/10:00am 12.5 9.6 6.5 67 2.9 SE 11 15 6 8 1026.6 1026.6 0.0
20/09:30am 12.0 9.2 7.1 72 2.3 SE 11 15 6 8 1026.6 1026.6 0.0
20/09:00am 11.2 8.8 6.9 75 2.0 SE 9 13 5 7 1026.6 1026.6 0.0
20/08:30am 10.7 8.3 7.2 79 1.7 ESE 9 13 5 7 1026.4 1026.4 0.0
20/08:00am 7.8 6.8 5.6 86 1.0 CALM 0 0 0 0 1026.2 1026.2 0.0
20/07:30am 5.6 3.4 3.6 87 0.8 WNW 4 6 2 3 1025.9 1025.9 0.0
20/07:00am 4.5 1.6 2.8 89 0.7 WNW 7 7 4 4 1025.6 1025.6 0.0
20/06:30am 3.8 2.1 1.8 87 0.8 CALM 0 6 0 3 1025.4 1025.4 0.0
20/06:00am 3.6 1.5 1.8 88 0.7 W 2 6 1 3 1025.3 1025.3 0.0
20/05:30am 2.8 -0.1 1.3 90 0.6 WSW 6 7 3 4 1025.1 1025.1 0.0
20/05:00am 1.8 -1.3 -0.1 87 0.7 W 6 7 3 4 1025.1 1025.1 0.0
20/04:30am 1.7 -1.6 -0.2 87 0.7 W 7 9 4 5 1025.1 1025.1 0.0
20/04:00am 1.6 -1.6 -0.2 88 0.7 W 6 9 3 5 1025.1 1025.1 0.0
20/03:30am 0.9 -3.3 -0.9 88 0.6 W 11 13 6 7 1025.1 1025.1 0.0
20/03:00am 0.9 -2.9 -1.0 87 0.7 WNW 9 11 5 6 1025.3 1025.3 0.0
20/02:30am 1.7 -1.7 -0.4 86 0.8 NNW 7 9 4 5 1025.4 1025.4 0.0
20/02:00am 1.9 -1.9 -0.5 84 0.9 NNW 9 9 5 5 1025.5 1025.5 0.0
20/01:30am 2.8 -0.8 0.7 86 0.8 NW 9 11 5 6 1025.6 1025.6 0.0
20/01:00am 2.8 -1.6 0.5 85 0.9 NNW 13 13 7 7 1025.7 1025.7 0.0
20/12:30am 2.5 -1.2 0.2 85 0.8 NW 9 11 5 6 1025.6 1025.6 0.0
20/12:00am 3.1 -0.1 0.7 84 0.9 WSW 7 9 4 5 1025.7 1025.7 0.0
 
Date/Time
CST
Temp
°C
App
Temp
°C
Dew
Point
Rel
Hum
%
Delta-T
°C
Wind Press
QNH
hPa
Press
MSL
hPa
Rain
since 9 am
mm
Dir
 
Spd
km/h
Gust
km/h
Spd
kts
Gust
kts
19/11:30pm 3.3 0.1 0.9 84 0.9 WSW 7 9 4 5 1025.8 1025.8 0.0
19/11:00pm 3.8 0.9 1.4 84 0.9 NW 6 9 3 5 1025.8 1025.8 0.0
19/10:30pm 3.7 0.5 0.9 82 1.1 NNW 7 9 4 5 1026.0 1026.0 0.0
19/10:00pm 5.1 3.4 1.8 79 1.3 CALM 0 4 0 2 1026.0 1026.0 0.0
19/09:30pm 5.6 2.3 2.6 81 1.2 WSW 9 11 5 6 1026.0 1026.0 0.0
19/09:00pm 7.0 3.9 3.8 80 1.4 SW 9 11 5 6 1025.9 1025.9 0.0
19/08:30pm 7.4 3.6 3.8 78 1.5 S 13 13 7 7 1025.9 1025.9 0.0
19/08:00pm 7.6 4.1 3.5 75 1.7 SSW 11 13 6 7 1025.8 1025.8 0.0
19/07:30pm 8.3 4.7 3.2 70 2.2 S 11 13 6 7 1025.7 1025.7 0.0
19/07:00pm 9.9 6.4 3.4 64 2.8 S 11 13 6 7 1025.5 1025.5 0.0
19/06:30pm 11.3 7.5 3.8 60 3.3 S 13 20 7 11 1025.4 1025.4 0.0
19/06:00pm 11.6 7.5 4.1 60 3.3 S 15 19 8 10 1025.2 1025.2 0.0
19/05:30pm 11.9 8.1 3.9 58 3.6 S 13 17 7 9 1025.0 1025.0 0.0
19/05:00pm 12.5 8.6 3.5 54 4.0 S 13 19 7 10 1024.8 1024.8 0.0
19/04:30pm 12.7 8.0 3.4 53 4.1 S 17 24 9 13 1024.7 1024.7 0.0
19/04:00pm 13.4 9.0 2.6 48 4.8 SSE 15 24 8 13 1024.7 1024.7 0.0
19/03:30pm 13.1 8.4 3.2 51 4.4 S 17 28 9 15 1024.8 1024.8 0.0
19/03:00pm 13.7 9.0 2.9 48 4.8 S 17 26 9 14 1024.8 1024.8 0.0
19/02:30pm 14.0 8.9 2.9 47 4.9 S 19 28 10 15 1024.8 1024.8 0.0
19/02:00pm 13.8 8.5 3.0 48 4.8 S 20 28 11 15 1024.7 1024.7 0.0
19/01:30pm 14.1 8.6 2.0 44 5.3 SSE 20 28 11 15 1024.8 1024.8 0.0
19/01:00pm 13.9 8.7 2.2 45 5.1 SSE 19 24 10 13 1025.1 1025.1 0.0
19/12:30pm 13.6 8.5 3.1 49 4.7 SSE 19 26 10 14 1025.4 1025.4 0.0
19/12:00pm 13.2 8.8 2.7 49 4.6 ESE 15 22 8 12 1026.0 1026.0 0.0
19/11:30am 13.3 8.4 2.2 47 4.8 ESE 17 24 9 13 1026.2 1026.2 0.0
19/11:00am 12.9 8.9 3.0 51 4.4 ESE 13 20 7 11 1026.5 1026.5 0.0
19/10:30am 12.7 9.2 3.6 54 4.0 E 11 20 6 11 1026.8 1026.8 0.0
19/10:00am 12.1 8.8 4.6 60 3.4 E 11 17 6 9 1026.9 - 0.0
19/09:30am 11.5 9.3 6.4 71 2.4 E 7 11 4 6 1027.0 1027.0 0.0
19/09:00am 9.1 8.3 8.0 93 0.5 N 2 6 1 3 1026.9 1026.9 0.0
19/08:30am 7.2 5.3 6.9 98 0.1 N 6 7 3 4 1026.7 1026.7 0.0
19/08:00am 5.7 3.6 5.6 99 0.0 NNW 6 6 3 3 1026.4 - 0.0
19/07:30am 4.1 1.6 4.0 99 0.0 NW 6 7 3 4 1026.2 1026.2 0.0
19/07:00am 3.0 -0.2 2.9 99 0.0 NNW 9 9 5 5 1025.8 - 0.0
19/06:39am 2.4 -0.6 2.3 99 0.0 NW 7 9 4 5 1025.6 - 0.0
19/06:30am 1.8 -1.2 1.7 99 0.0 NW 7 9 4 5 1025.5 1025.5 0.0
19/06:23am 1.8 -1.6 1.7 99 0.0 NW 9 13 5 7 1025.4 - 0.0
19/06:00am 1.8 -1.2 1.7 99 0.0 NNW 7 11 4 6 1025.2 1025.2 0.0
19/05:58am 1.6 -1.5 1.5 99 0.0 NW 7 11 4 6 1025.2 - 0.0
19/05:33am 2.6 -0.7 2.5 99 0.0 NNW 9 9 5 5 1024.9 - 0.0
19/05:30am 2.6 -0.7 2.5 99 0.0 NNW 9 9 5 5 1024.9 1024.9 0.0
19/05:00am 4.2 1.6 4.1 99 0.0 NNW 7 9 4 5 1024.7 - 0.0
19/04:54am 3.8 1.3 3.7 99 0.0 NNW 6 9 3 5 1024.7 - 0.0
19/04:38am 2.7 -0.6 2.4 98 0.1 NW 9 11 5 6 1024.7 - 0.0
19/04:30am 3.6 0.9 3.5 99 0.0 NW 7 9 4 5 1024.8 1024.8 0.0
19/04:06am 2.9 -0.4 2.6 98 0.1 NW 9 11 5 6 1024.6 - 0.0
19/04:00am 3.1 -0.1 2.8 98 0.1 NW 9 11 5 6 1024.6 - 0.0
19/03:52am 2.7 -1.0 2.4 98 0.1 NW 11 11 6 6 1024.5 - 0.0
19/03:30am 3.4 0.6 3.0 97 0.2 WNW 7 9 4 5 1024.6 1024.6 0.0
19/03:00am 4.7 1.8 4.4 98 0.1 W 9 11 5 6 1024.5 1024.5 0.0
19/02:30am 4.0 0.9 3.6 97 0.2 W 9 11 5 6 1024.8 1024.8 0.0
19/02:00am 3.7 0.8 2.8 94 0.4 WNW 7 9 4 5 1024.9 - 0.0
19/01:30am 5.3 3.0 4.6 95 0.3 SW 6 6 3 3 1025.0 1025.0 0.0
19/01:00am 4.8 3.5 3.9 94 0.4 CALM 0 6 0 3 1025.2 - 0.0
19/12:30am 6.2 5.0 4.8 91 0.6 CALM 0 0 0 0 1025.1 1025.1 0.0
19/12:00am 7.2 5.0 6.0 92 0.5 WSW 7 9 4 5 1025.1 1025.1 0.0
 
Date/Time
CST
Temp
°C
App
Temp
°C
Dew
Point
Rel
Hum
%
Delta-T
°C
Wind Press
QNH
hPa
Press
MSL
hPa
Rain
since 9 am
mm
Dir
 
Spd
km/h
Gust
km/h
Spd
kts
Gust
kts
18/11:30pm 7.0 4.7 5.9 93 0.5 WSW 7 11 4 6 1025.4 1025.4 0.0
18/11:00pm 7.3 5.3 6.1 92 0.5 W 6 7 3 4 1025.4 - 0.0
18/10:30pm 8.4 5.2 6.9 90 0.7 SW 13 17 7 9 1025.5 1025.5 0.0
18/10:00pm 8.5 5.7 7.1 91 0.7 SSW 11 13 6 7 1025.4 - 0.0
18/09:30pm 9.3 5.9 7.6 89 0.8 SSW 15 17 8 9 1025.2 1025.2 0.0
18/09:00pm 8.7 5.9 7.0 89 0.8 SSW 11 13 6 7 1025.2 1025.2 0.0
18/08:30pm 9.3 6.5 7.1 86 1.0 S 11 13 6 7 1025.2 1025.2 0.0
18/08:00pm 10.0 7.4 7.6 85 1.1 S 11 13 6 7 1024.9 - 0.0
18/07:30pm 10.0 7.3 7.4 84 1.2 S 11 13 6 7 1024.7 1024.7 0.0
18/07:00pm 9.9 6.8 7.2 83 1.3 S 13 17 7 9 1024.4 - 0.0
18/06:30pm 10.4 7.6 7.1 80 1.6 S 11 13 6 7 1024.0 1024.0 0.0
18/06:00pm 11.7 9.0 7.2 74 2.1 S 11 13 6 7 1023.9 1023.9 0.0
18/05:30pm 13.0 9.5 7.0 67 2.9 SSE 15 20 8 11 1023.6 1023.6 0.0
18/05:00pm 13.8 9.5 6.9 63 3.3 S 19 24 10 13 1023.4 - 0.0
18/04:30pm 14.2 9.9 6.8 61 3.6 S 19 26 10 14 1023.2 1023.2 0.0
18/04:00pm 15.0 10.0 6.3 56 4.2 S 22 30 12 16 1023.0 - 0.0
18/03:30pm 14.8 9.2 5.6 54 4.3 S 24 35 13 19 1023.1 1023.1 0.0
18/03:00pm 15.6 10.5 5.8 52 4.7 S 22 32 12 17 1023.0 1023.0 0.0
18/02:30pm 15.3 11.1 7.3 59 3.9 S 19 28 10 15 1023.0 1023.0 0.0
18/02:00pm 14.8 10.7 6.4 57 4.1 S 17 24 9 13 1023.2 - 0.0
18/01:30pm 13.8 10.4 7.6 66 3.0 S 15 19 8 10 1023.4 1023.4 0.0
18/01:00pm 13.9 9.8 8.5 70 2.7 S 20 26 11 14 1023.8 - 0.0
18/12:30pm 14.1 10.4 9.3 73 2.4 SSE 19 26 10 14 1024.0 1024.0 0.0
18/12:00pm 14.2 11.0 9.8 75 2.3 SSE 17 22 9 12 1024.4 1024.4 0.0
18/11:30am 13.6 10.2 9.1 74 2.3 SSE 17 24 9 13 1024.6 1024.6 0.0
18/11:12am 13.4 10.5 9.6 78 1.9 SSE 15 20 8 11 1024.8 - 0.0
18/11:00am 13.3 10.5 9.9 80 1.7 S 15 22 8 12 1024.9 - 0.0
18/10:30am 13.0 9.7 9.6 80 1.7 SSE 17 22 9 12 1025.2 1025.2 0.0
18/10:00am 13.0 9.7 9.6 80 1.7 S 17 22 9 12 1025.4 - 0.0
18/09:30am 12.7 9.5 9.9 83 1.4 S 17 22 9 12 1025.3 1025.3 0.0
18/09:00am 12.3 9.5 10.0 86 1.2 S 15 22 8 12 1025.2 1025.2 0.0
18/08:30am 10.3 9.2 10.0 98 0.2 WSW 6 11 3 6 1025.1 1025.1 0.0
18/08:00am 8.3 6.7 8.2 99 0.0 NW 6 7 3 4 1024.9 - 0.0
18/07:30am 4.3 1.3 4.2 99 0.0 WNW 9 9 5 5 1024.8 1024.8 0.0
18/07:00am 3.7 1.0 3.6 99 0.0 NW 7 9 4 5 1024.5 - 0.0
18/06:30am 5.0 2.1 4.9 99 0.0 WSW 9 9 5 5 1024.3 1024.3 0.0
18/06:00am 6.3 3.7 6.2 99 0.0 WSW 9 11 5 6 1023.9 1023.9 0.0
18/05:47am 6.6 3.7 6.5 99 0.0 WSW 11 15 6 8 1023.8 - 0.0
18/05:30am 6.2 3.6 5.9 98 0.1 WSW 9 11 5 6 1023.5 1023.5 0.0
18/05:04am 6.8 4.7 6.5 98 0.1 SW 7 9 4 5 1023.2 - 0.0
18/05:00am 6.7 4.5 6.4 98 0.1 SW 7 9 4 5 1023.2 - 0.0
18/04:30am 6.8 4.3 6.5 98 0.1 WSW 9 13 5 7 1023.2 1023.2 0.0
18/04:00am 7.7 5.8 7.4 98 0.1 WSW 7 7 4 4 1023.3 - 0.0
18/03:30am 7.7 5.4 7.4 98 0.1 WSW 9 11 5 6 1023.3 1023.3 0.0
18/03:00am 7.0 4.1 6.6 97 0.2 WSW 11 13 6 7 1023.6 1023.6 0.0
18/02:30am 7.5 4.7 6.9 96 0.3 WSW 11 13 6 7 1023.8 1023.8 0.0
18/02:00am 8.5 5.5 7.9 96 0.3 WSW 13 15 7 8 1023.9 - 0.0
18/01:30am 8.9 6.4 8.0 94 0.4 SW 11 13 6 7 1023.9 1023.9 0.0
18/01:00am 9.7 6.9 8.5 92 0.6 SSW 13 17 7 9 1024.1 - 0.0
18/12:30am 10.2 7.4 8.5 89 0.8 SSW 13 15 7 8 1024.1 1024.1 0.0
18/12:00am 10.8 8.0 8.7 87 1.0 SW 13 17 7 9 1024.1 1024.1 0.0
 
Date/Time
CST
Temp
°C
App
Temp
°C
Dew
Point
Rel
Hum
%
Delta-T
°C
Wind Press
QNH
hPa
Press
MSL
hPa
Rain
since 9 am
mm
Dir
 
Spd
km/h
Gust
km/h
Spd
kts
Gust
kts
17/11:30pm 11.0 8.4 9.3 89 0.8 SW 13 19 7 10 1024.1 1024.1 0.0
17/11:00pm 11.0 7.2 9.1 88 0.9 SW 19 24 10 13 1024.0 - 0.0
17/10:30pm 10.7 8.0 8.8 88 0.9 SSW 13 15 7 8 1024.0 1024.0 0.0
17/10:00pm 11.6 7.8 9.0 84 1.3 SSW 19 24 10 13 1024.0 - 0.0
17/09:30pm 11.7 7.9 9.1 84 1.3 SSW 19 24 10 13 1024.0 1024.0 0.0
17/09:00pm 11.1 7.5 8.3 83 1.4 SSW 17 22 9 12 1023.9 1023.9 0.0
17/08:30pm 11.9 7.9 8.4 79 1.7 SSW 19 24 10 13 1023.6 1023.6 0.0
17/08:00pm 11.7 7.6 8.0 78 1.8 SSW 19 22 10 12 1023.3 - 0.0
17/07:30pm 12.4 8.2 7.5 72 2.4 SSW 19 22 10 12 1023.1 1023.1 0.0
17/07:00pm 11.8 7.5 7.1 73 2.3 SSW 19 24 10 13 1022.8 - 0.0
17/06:30pm 12.6 8.1 6.9 68 2.7 SSW 20 26 11 14 1022.6 1022.6 0.0
17/06:00pm 12.8 8.1 7.7 71 2.5 S 22 30 12 16 1022.1 1022.1 0.0
17/05:30pm 13.3 7.7 5.5 59 3.6 S 24 30 13 16 1021.7 1021.7 0.0
17/05:00pm 13.8 7.4 5.2 56 4.0 S 28 37 15 20 1021.3 - 0.0
17/04:30pm 14.3 7.1 5.1 54 4.3 S 32 41 17 22 1021.2 1021.2 0.0
17/04:00pm 14.8 9.1 5.1 52 4.6 S 24 35 13 19 1021.1 - 0.0
17/03:30pm 15.5 9.0 4.5 48 5.1 S 28 39 15 21 1020.9 1020.9 0.0
17/03:00pm 14.8 8.4 5.1 52 4.5 S 28 39 15 21 1020.8 1020.8 0.0
17/02:30pm 15.6 8.6 4.3 47 5.2 S 30 41 16 22 1020.8 1020.8 0.0

Other Formats:

Comma delimited format used in spreadsheet applications
http://www.bom.gov.au/fwo/IDS60801/IDS60801.95664.axf

JavaScript Object Notation format (JSON) in row-major order
http://www.bom.gov.au/fwo/IDS60801/IDS60801.95664.json